Weather at Las Colinas Medical Center Heliport

Public forecast

Using degrees Fahrenheit for public forecast. Weather courtesy of forecast.io.

Closest aviation weather report (METAR) to Las Colinas Medical Center Heliport

Closest report is Dallas Fort Worth International Airport, 4.1 nm (7.6 km) W.

2024/05/25 21:53 (retrieved 1 hour ago)

KDFW 252153Z 16014G23KT 6SM HZ SCT037 OVC250 33/24 A2967 RMK AO2 SLP038 T03280244

Closest aviation forecast (TAF) to Las Colinas Medical Center Heliport

Closest forecast is Dallas Fort Worth International Airport, 4.1 nm (7.6 km) W.

2024/05/25 21:06 Ammendment (retrieved 2 hours ago)

TAF AMD KDFW 252103Z 2521/2624 16014KT P6SM SCT040 BKN250 FM252300 15015G25KT P6SM VCTS SCT050CB BKN100 TEMPO 2600/2602 VRB15G30KT -TSRA BKN045CB FM260300 18016KT P6SM SCT120 FM261200 19014KT P6SM BKN015 FM261700 20015G25KT P6SM FEW020